createdAt,value
2019-01-20T00:00:59.459Z,-976.12
2019-01-20T00:01:59.632Z,-923.68
2019-01-20T00:02:59.811Z,-978.69
2019-01-20T00:04:00.029Z,-922.19
2019-01-20T00:05:00.231Z,-975.60
2019-01-20T00:06:00.282Z,-977.59
2019-01-20T00:07:00.442Z,-973.77
2019-01-20T00:08:00.621Z,-917.11
2019-01-20T00:09:00.782Z,-973.75
2019-01-20T00:10:00.931Z,-975.69
2019-01-20T00:11:01.093Z,-974.92
2019-01-20T00:12:01.306Z,-975.08
2019-01-20T00:13:01.443Z,-977.54
2019-01-20T00:14:01.607Z,-975.85
2019-01-20T00:15:01.763Z,-975.07
2019-01-20T00:16:01.938Z,-922.42
2019-01-20T00:17:02.071Z,-974.10
2019-01-20T00:18:02.265Z,-974.73
2019-01-20T00:19:02.427Z,-970.27
2019-01-20T00:20:02.646Z,-974.80
2019-01-20T00:21:02.821Z,-970.89
2019-01-20T00:22:02.885Z,-971.18
2019-01-20T00:23:03.078Z,-975.52
2019-01-20T00:24:03.243Z,-974.41
2019-01-20T00:25:03.393Z,-974.56
2019-01-20T00:26:03.563Z,-973.17
2019-01-20T00:27:03.708Z,-975.24
2019-01-20T00:28:03.879Z,-973.01
2019-01-20T00:29:04.194Z,-967.92
2019-01-20T00:30:04.206Z,-917.85
2019-01-20T00:31:04.392Z,-975.80
2019-01-20T00:32:04.526Z,-970.79
2019-01-20T00:33:04.680Z,-969.86
2019-01-20T00:34:04.861Z,-971.96
2019-01-20T00:35:05.047Z,-974.47
2019-01-20T00:36:05.213Z,-977.01
2019-01-20T00:37:05.487Z,-971.87
2019-01-20T00:38:05.500Z,-973.80
2019-01-20T00:39:05.671Z,-968.64
2019-01-20T00:40:05.864Z,-971.70
2019-01-20T00:41:06.026Z,-970.26
2019-01-20T00:42:06.169Z,-973.40
2019-01-20T00:43:06.347Z,-969.81
2019-01-20T00:44:06.478Z,-974.22
2019-01-20T00:45:06.680Z,-976.25
2019-01-20T00:46:06.821Z,-978.63
2019-01-20T00:47:06.968Z,-977.25
2019-01-20T00:48:07.147Z,-974.93
2019-01-20T00:49:07.293Z,-970.47
2019-01-20T00:50:07.451Z,-973.13
2019-01-20T00:51:07.654Z,-920.06
2019-01-20T00:52:07.820Z,-923.25
2019-01-20T00:53:08.027Z,-926.05
2019-01-20T00:54:08.147Z,-921.90
2019-01-20T00:55:08.251Z,-929.03
2019-01-20T00:56:08.413Z,-927.75
2019-01-20T00:57:08.596Z,-928.18
2019-01-20T00:58:08.759Z,-926.23
2019-01-20T00:59:08.903Z,-930.66
2019-01-20T01:00:09.073Z,-921.47
2019-01-20T01:01:09.257Z,-927.99
2019-01-20T01:02:09.492Z,-925.44
2019-01-20T01:03:09.563Z,-929.16
2019-01-20T01:04:09.715Z,-930.64
2019-01-20T01:05:09.871Z,-929.45
2019-01-20T01:06:10.043Z,-930.06
2019-01-20T01:07:10.194Z,-928.38
2019-01-20T01:08:10.355Z,-929.96
2019-01-20T01:09:10.523Z,-931.13
2019-01-20T01:10:10.840Z,-932.41
2019-01-20T01:11:10.844Z,-923.13
2019-01-20T01:12:10.993Z,-931.85
2019-01-20T01:13:11.163Z,-931.22
2019-01-20T01:14:11.350Z,-927.16
2019-01-20T01:15:11.533Z,-928.71
2019-01-20T01:16:11.934Z,-929.42
2019-01-20T01:17:11.841Z,-929.88
2019-01-20T01:18:12.078Z,-931.95
2019-01-20T01:19:12.159Z,-933.50
2019-01-20T01:20:12.315Z,-934.53
2019-01-20T01:21:12.489Z,-929.22
2019-01-20T01:22:12.646Z,-932.79
2019-01-20T01:23:12.775Z,-928.30
2019-01-20T01:24:12.976Z,-932.97
2019-01-20T01:25:13.140Z,-930.62
2019-01-20T01:26:13.349Z,-931.94
2019-01-20T01:27:13.446Z,-927.23
2019-01-20T01:28:13.610Z,-928.75
2019-01-20T01:29:13.773Z,-932.55
2019-01-20T01:30:13.927Z,-931.05
2019-01-20T01:31:14.120Z,-930.50
2019-01-20T01:32:14.274Z,-929.16
2019-01-20T01:33:14.424Z,-928.73
2019-01-20T01:34:14.636Z,-926.86
2019-01-20T01:35:14.993Z,-927.97
2019-01-20T01:36:14.926Z,-931.09
2019-01-20T01:37:15.082Z,-932.91
2019-01-20T01:38:15.227Z,-929.60
2019-01-20T01:39:15.401Z,-930.29
2019-01-20T01:40:15.543Z,-930.61
2019-01-20T01:41:15.700Z,-932.95
2019-01-20T01:42:15.901Z,-934.49
2019-01-20T01:43:16.133Z,-931.64
2019-01-20T01:44:16.206Z,-928.79
2019-01-20T01:45:16.349Z,-932.01
2019-01-20T01:46:16.524Z,-984.61
2019-01-20T01:47:16.682Z,-985.57
2019-01-20T01:48:16.843Z,-980.79
2019-01-20T01:49:17.018Z,-984.63
2019-01-20T01:50:17.202Z,-985.75
2019-01-20T01:51:17.413Z,-987.60
2019-01-20T01:52:17.479Z,-984.07
2019-01-20T01:53:17.637Z,-983.45
2019-01-20T01:54:17.817Z,-981.15
2019-01-20T01:55:17.975Z,-982.64
2019-01-20T01:56:18.121Z,-985.39
2019-01-20T01:57:18.267Z,-984.05
2019-01-20T01:58:18.442Z,-988.26
2019-01-20T01:59:18.682Z,-985.92
2019-01-20T02:00:18.758Z,-985.92
2019-01-20T02:01:18.934Z,-977.53
2019-01-20T02:02:19.058Z,-989.06
2019-01-20T02:03:19.238Z,-984.24
2019-01-20T02:04:19.419Z,-989.58
2019-01-20T02:05:19.571Z,-984.85
2019-01-20T02:06:19.751Z,-980.80
2019-01-20T02:07:19.932Z,-985.02
2019-01-20T02:08:19.941Z,-980.13
2019-01-20T02:09:20.121Z,-986.32
2019-01-20T02:10:20.283Z,-981.36
2019-01-20T02:11:20.455Z,-982.65
2019-01-20T02:12:20.640Z,-980.36
2019-01-20T02:13:20.741Z,-980.90
2019-01-20T02:14:20.932Z,-981.78
2019-01-20T02:15:21.358Z,-982.14
2019-01-20T02:16:21.377Z,-984.40
2019-01-20T02:17:21.438Z,-983.95
2019-01-20T02:18:21.600Z,-984.85
2019-01-20T02:19:21.796Z,-987.12
2019-01-20T02:20:21.939Z,-986.97
2019-01-20T02:21:22.097Z,-985.85
2019-01-20T02:22:22.323Z,-933.43
2019-01-20T02:23:22.425Z,-989.34
2019-01-20T02:24:22.701Z,-987.96
2019-01-20T02:25:22.745Z,-986.76
2019-01-20T02:26:22.903Z,-985.81
2019-01-20T02:27:23.075Z,-986.24
2019-01-20T02:28:23.221Z,-984.83
2019-01-20T02:29:23.414Z,-987.42
2019-01-20T02:30:23.572Z,-985.87
2019-01-20T02:31:23.726Z,-987.53
2019-01-20T02:32:23.990Z,-987.03
2019-01-20T02:33:24.043Z,-987.53
2019-01-20T02:34:24.246Z,-983.95
2019-01-20T02:35:24.398Z,-984.37
2019-01-20T02:36:24.563Z,-985.62
2019-01-20T02:37:24.736Z,-985.05
2019-01-20T02:38:24.881Z,-983.26
2019-01-20T02:39:25.071Z,-985.50
2019-01-20T02:40:25.244Z,-984.83
2019-01-20T02:41:25.366Z,-983.79
2019-01-20T02:42:25.533Z,-984.16
2019-01-20T02:43:25.669Z,-985.83
2019-01-20T02:44:25.856Z,-987.87
2019-01-20T02:45:26.025Z,-987.74
2019-01-20T02:46:26.162Z,-983.65
2019-01-20T02:47:26.336Z,-986.91
2019-01-20T02:48:26.531Z,-985.30
2019-01-20T02:49:26.648Z,-985.88
2019-01-20T02:50:26.805Z,-988.45
2019-01-20T02:51:26.969Z,-990.21
2019-01-20T02:52:27.147Z,-983.83
2019-01-20T02:53:27.291Z,-988.86
2019-01-20T02:54:27.467Z,-982.18
2019-01-20T02:55:27.627Z,-986.61
2019-01-20T02:56:28.029Z,-985.55
2019-01-20T02:57:28.035Z,-985.74
2019-01-20T02:58:28.106Z,-983.26
2019-01-20T02:59:28.278Z,-985.87
2019-01-20T03:00:28.450Z,-989.31
2019-01-20T03:01:28.605Z,-984.82
2019-01-20T03:02:28.749Z,-987.96
2019-01-20T03:03:28.903Z,-986.41
2019-01-20T03:04:29.100Z,-983.42
2019-01-20T03:05:29.358Z,-985.73
2019-01-20T03:06:29.392Z,-987.32
2019-01-20T03:07:29.561Z,-987.64
2019-01-20T03:08:29.715Z,-984.75
2019-01-20T03:09:29.921Z,-986.56
2019-01-20T03:10:30.050Z,-987.25
2019-01-20T03:11:30.217Z,-987.82
2019-01-20T03:12:30.391Z,-989.63
2019-01-20T03:13:30.615Z,-987.80
2019-01-20T03:14:30.704Z,-990.16
2019-01-20T03:15:30.842Z,-986.28
2019-01-20T03:16:31.005Z,-990.70
2019-01-20T03:17:31.174Z,-987.11
2019-01-20T03:18:31.323Z,-982.26
2019-01-20T03:19:31.506Z,-932.64
2019-01-20T03:20:31.647Z,-988.23
2019-01-20T03:21:31.863Z,-988.76
2019-01-20T03:22:31.964Z,-985.39
2019-01-20T03:23:32.115Z,-984.83
2019-01-20T03:24:32.258Z,-983.47
2019-01-20T03:25:32.415Z,-984.46
2019-01-20T03:26:32.610Z,-983.43
2019-01-20T03:27:32.776Z,-987.96
2019-01-20T03:28:32.921Z,-981.68
2019-01-20T03:29:33.118Z,-986.93
2019-01-20T03:30:33.281Z,-986.49
2019-01-20T03:31:33.439Z,-990.98
2019-01-20T03:32:33.594Z,-985.73
2019-01-20T03:33:33.738Z,-988.37
2019-01-20T03:34:33.896Z,-987.07
2019-01-20T03:35:34.076Z,-987.50
2019-01-20T03:36:34.237Z,-989.72
2019-01-20T03:37:34.438Z,-988.76
2019-01-20T03:38:34.664Z,-991.29
2019-01-20T03:39:34.731Z,-989.66
2019-01-20T03:40:34.881Z,-985.78
2019-01-20T03:41:38.978Z,-987.09
2019-01-20T03:42:35.238Z,-991.40
2019-01-20T03:43:35.383Z,-986.95
2019-01-20T03:44:35.554Z,-985.56
2019-01-20T03:45:35.718Z,-986.69
2019-01-20T03:46:35.987Z,-987.19
2019-01-20T03:47:36.056Z,-982.25
2019-01-20T03:48:36.204Z,-984.00
2019-01-20T03:49:36.380Z,-985.89
2019-01-20T03:50:36.552Z,-986.98
2019-01-20T03:51:36.691Z,-985.69
2019-01-20T03:52:36.870Z,-983.73
2019-01-20T03:53:37.014Z,-985.80
2019-01-20T03:54:37.227Z,-984.52
2019-01-20T03:55:37.335Z,-981.28
2019-01-20T03:56:37.489Z,-982.27
2019-01-20T03:57:37.650Z,-984.58
2019-01-20T03:58:37.795Z,-986.53
2019-01-20T03:59:37.991Z,-988.24
2019-01-20T04:00:38.147Z,-986.38
2019-01-20T04:01:38.294Z,-989.20
2019-01-20T04:02:38.521Z,-984.23
2019-01-20T04:03:38.577Z,-988.32
2019-01-20T04:04:38.772Z,-989.03
2019-01-20T04:05:38.948Z,-990.22
2019-01-20T04:06:39.093Z,-986.52
2019-01-20T04:07:39.285Z,-987.22
2019-01-20T04:08:39.421Z,-986.48
2019-01-20T04:09:39.565Z,-990.26
2019-01-20T04:10:39.774Z,-983.83
2019-01-20T04:11:39.955Z,-990.45
2019-01-20T04:12:40.089Z,-986.96
2019-01-20T04:13:40.217Z,-989.05
2019-01-20T04:14:40.387Z,-987.92
2019-01-20T04:15:40.566Z,-986.61
2019-01-20T04:16:40.721Z,-988.42
2019-01-20T04:17:40.919Z,-989.99
2019-01-20T04:18:41.053Z,-985.93
2019-01-20T04:19:41.288Z,-991.05
2019-01-20T04:20:41.382Z,-989.43
2019-01-20T04:21:41.524Z,-988.59
2019-01-20T04:22:41.715Z,-993.82
2019-01-20T04:23:41.849Z,-987.98
2019-01-20T04:24:42.001Z,-986.77
2019-01-20T04:25:42.163Z,-991.40
2019-01-20T04:26:42.397Z,-933.07
2019-01-20T04:27:42.608Z,-934.54
2019-01-20T04:28:42.640Z,-933.10
2019-01-20T04:29:42.798Z,-937.60
2019-01-20T04:30:42.952Z,-932.99
2019-01-20T04:31:43.121Z,-934.13
2019-01-20T04:32:43.343Z,-936.21
2019-01-20T04:33:43.458Z,-932.54
2019-01-20T04:34:43.623Z,-933.57
2019-01-20T04:35:44.053Z,-933.98
2019-01-20T04:36:43.905Z,-931.37
2019-01-20T04:37:44.127Z,-933.70
2019-01-20T04:38:44.264Z,-930.14
2019-01-20T04:39:44.416Z,-928.66
2019-01-20T04:40:44.605Z,-938.06
2019-01-20T04:41:44.747Z,-935.44
2019-01-20T04:42:44.900Z,-935.32
2019-01-20T04:43:45.088Z,-938.63
2019-01-20T04:44:45.225Z,-935.45
2019-01-20T04:45:45.398Z,-934.38
2019-01-20T04:46:45.551Z,-939.14
2019-01-20T04:47:45.721Z,-935.90
2019-01-20T04:48:45.868Z,-936.30
2019-01-20T04:49:46.043Z,-937.55
2019-01-20T04:50:46.239Z,-937.72
2019-01-20T04:51:46.425Z,-932.20
2019-01-20T04:52:46.651Z,-937.99
2019-01-20T04:53:46.728Z,-937.86
2019-01-20T04:54:46.882Z,-936.07
2019-01-20T04:55:47.080Z,-935.19
2019-01-20T04:56:47.226Z,-931.24
2019-01-20T04:57:47.403Z,-931.18
2019-01-20T04:58:47.568Z,-932.36
2019-01-20T04:59:47.697Z,-934.62
2019-01-20T05:00:47.992Z,-935.73
2019-01-20T05:01:48.022Z,-934.66
2019-01-20T05:02:48.202Z,-935.91
2019-01-20T05:03:48.361Z,-934.88
2019-01-20T05:04:48.492Z,-933.67
2019-01-20T05:05:48.685Z,-933.42
2019-01-20T05:06:48.863Z,-935.98
2019-01-20T05:07:49.025Z,-934.28
2019-01-20T05:08:49.235Z,-935.26
2019-01-20T05:09:49.304Z,-939.49
2019-01-20T05:10:49.510Z,-939.24
2019-01-20T05:11:49.658Z,-938.76
2019-01-20T05:12:49.838Z,-937.57
2019-01-20T05:13:50.006Z,-937.25
2019-01-20T05:14:50.143Z,-933.90
2019-01-20T05:15:50.325Z,-936.61
2019-01-20T05:16:50.502Z,-936.70
2019-01-20T05:17:50.605Z,-932.97
2019-01-20T05:18:50.793Z,-939.83
2019-01-20T05:19:50.936Z,-935.58
2019-01-20T05:20:51.123Z,-932.72
2019-01-20T05:21:51.253Z,-932.37
2019-01-20T05:22:51.399Z,-934.03
2019-01-20T05:23:51.594Z,-933.78
2019-01-20T05:24:51.798Z,-935.05
2019-01-20T05:25:51.971Z,-931.73
2019-01-20T05:26:52.095Z,-933.12
2019-01-20T05:27:52.214Z,-931.52
2019-01-20T05:28:52.398Z,-932.25
2019-01-20T05:29:52.554Z,-931.68
2019-01-20T05:30:52.727Z,-933.07
2019-01-20T05:31:52.891Z,-929.33
2019-01-20T05:32:53.043Z,-929.11
2019-01-20T05:33:53.316Z,-932.37
2019-01-20T05:34:53.354Z,-931.74
2019-01-20T05:35:53.539Z,-932.05
2019-01-20T05:36:53.698Z,-928.81
2019-01-20T05:37:53.840Z,-931.14
2019-01-20T05:38:54.002Z,-935.06
2019-01-20T05:39:54.158Z,-932.48
2019-01-20T05:40:54.335Z,-934.28
2019-01-20T05:41:54.964Z,-931.48
2019-01-20T05:42:54.622Z,-930.03
2019-01-20T05:43:54.821Z,-930.68
2019-01-20T05:44:54.976Z,-935.43
2019-01-20T05:45:55.126Z,-935.97
2019-01-20T05:46:55.304Z,-933.78
2019-01-20T05:47:55.471Z,-934.18
2019-01-20T05:48:55.626Z,-937.48
2019-01-20T05:49:55.816Z,-939.92
2019-01-20T05:50:55.906Z,-936.78
2019-01-20T05:51:56.101Z,-936.46
2019-01-20T05:52:56.269Z,-934.25
2019-01-20T05:53:56.440Z,-931.61
2019-01-20T05:54:56.574Z,-937.01
2019-01-20T05:55:56.745Z,-932.02
2019-01-20T05:56:56.950Z,-930.91
2019-01-20T05:57:57.144Z,-935.11
2019-01-20T05:58:57.257Z,-932.36
2019-01-20T05:59:57.403Z,-929.96
2019-01-20T06:00:57.546Z,-932.38
2019-01-20T06:01:57.754Z,-930.59
2019-01-20T06:02:57.893Z,-933.25
2019-01-20T06:03:58.068Z,-933.51
2019-01-20T06:04:58.213Z,-934.07
2019-01-20T06:05:58.398Z,-936.14
2019-01-20T06:06:58.614Z,-934.02
2019-01-20T06:07:58.711Z,-936.65
2019-01-20T06:08:58.938Z,-932.97
2019-01-20T06:09:59.020Z,-936.20
2019-01-20T06:10:59.180Z,-936.87
2019-01-20T06:11:59.355Z,-937.54
2019-01-20T06:12:59.521Z,-933.11
2019-01-20T06:13:59.701Z,-933.08
2019-01-20T06:15:00.295Z,-936.68
2019-01-20T06:16:00.003Z,-935.94
2019-01-20T06:17:00.166Z,-934.44
2019-01-20T06:18:00.341Z,-935.09
2019-01-20T06:19:00.514Z,-934.21
2019-01-20T06:20:00.666Z,-936.85
2019-01-20T06:21:00.830Z,-936.17
2019-01-20T06:22:01.010Z,-941.41
2019-01-20T06:23:01.308Z,-931.91
2019-01-20T06:24:01.309Z,-935.64
2019-01-20T06:25:01.500Z,-937.97
2019-01-20T06:26:01.609Z,-936.51
2019-01-20T06:27:01.815Z,-935.64
2019-01-20T06:28:01.948Z,-933.83
2019-01-20T06:31:45.768Z,-768.06
2019-01-20T06:32:28.375Z,-937.22
2019-01-20T06:33:28.612Z,-938.50
2019-01-20T06:34:28.683Z,-934.72
2019-01-20T06:35:28.863Z,-934.53
2019-01-20T06:39:08.746Z,-768.88
2019-01-20T06:39:53.990Z,-932.86
2019-01-20T06:40:54.154Z,-931.24
2019-01-20T06:41:54.343Z,-935.91
2019-01-20T06:43:01.213Z,-929.92
2019-01-20T06:43:55.650Z,-934.91
2019-01-20T06:44:54.800Z,-931.72
2019-01-20T06:45:54.952Z,-932.95
2019-01-20T06:46:55.164Z,-933.43
2019-01-20T06:47:55.327Z,-929.61
2019-01-20T06:48:55.477Z,-937.08
2019-01-20T06:49:55.627Z,-933.60
2019-01-20T06:50:55.814Z,-937.43
2019-01-20T06:51:55.923Z,-929.90
2019-01-20T06:52:56.121Z,-988.12
2019-01-20T06:53:56.276Z,-989.21
2019-01-20T06:54:56.420Z,-992.50
2019-01-20T06:55:56.575Z,-990.14
2019-01-20T06:56:56.761Z,-988.90
2019-01-20T06:57:56.889Z,-987.68
2019-01-20T06:58:57.104Z,-985.52
2019-01-20T06:59:57.319Z,-987.45
2019-01-20T07:00:57.387Z,-989.36
2019-01-20T07:01:57.559Z,-991.46
2019-01-20T07:02:57.723Z,-988.82
2019-01-20T07:03:57.895Z,-988.44
2019-01-20T07:04:58.036Z,-989.36
2019-01-20T07:05:58.194Z,-991.71
2019-01-20T07:06:58.373Z,-985.71
2019-01-20T07:07:58.646Z,-992.69
2019-01-20T07:08:58.689Z,-988.36
2019-01-20T07:09:58.836Z,-987.24
2019-01-20T07:10:59.003Z,-988.83
2019-01-20T07:11:59.182Z,-985.66
2019-01-20T07:12:59.388Z,-986.47
2019-01-20T07:13:59.517Z,-984.08
2019-01-20T07:14:59.642Z,-986.11
2019-01-20T07:15:59.910Z,-985.08
2019-01-20T07:16:59.988Z,-985.52
2019-01-20T07:18:00.136Z,-985.77
2019-01-20T07:19:00.330Z,-989.62
2019-01-20T07:20:00.528Z,-987.02
2019-01-20T07:21:00.620Z,-986.35
2019-01-20T07:22:00.801Z,-985.84
2019-01-20T07:23:00.968Z,-989.78
2019-01-20T07:24:01.176Z,-983.48
2019-01-20T07:25:01.233Z,-986.95
2019-01-20T07:26:01.413Z,-986.67
2019-01-20T07:27:01.607Z,-986.14
2019-01-20T07:28:01.751Z,-985.00
2019-01-20T07:29:01.924Z,-989.34
2019-01-20T07:30:02.085Z,-989.63
2019-01-20T07:31:02.231Z,-988.16
2019-01-20T07:32:02.436Z,-993.12
2019-01-20T07:33:02.650Z,-988.27
2019-01-20T07:34:02.755Z,-985.18
2019-01-20T07:35:02.939Z,-981.48
2019-01-20T07:36:03.082Z,-987.21
2019-01-20T07:37:03.259Z,-986.58
2019-01-20T07:38:03.431Z,-987.36
2019-01-20T07:39:03.584Z,-988.67
2019-01-20T07:40:03.769Z,-989.88
2019-01-20T07:41:04.012Z,-990.26
2019-01-20T07:42:04.081Z,-993.25
2019-01-20T07:43:04.272Z,-989.30
2019-01-20T07:44:04.400Z,-989.95
2019-01-20T07:45:04.577Z,-986.67
2019-01-20T07:46:04.724Z,-989.03
2019-01-20T07:47:04.898Z,-986.52
2019-01-20T07:48:05.060Z,-989.66
2019-01-20T07:49:05.274Z,-987.46
2019-01-20T07:50:05.376Z,-985.56
2019-01-20T07:51:05.521Z,-986.06
2019-01-20T07:52:05.705Z,-989.27
2019-01-20T07:53:05.989Z,-984.73
2019-01-20T07:54:06.021Z,-986.37
2019-01-20T07:55:06.420Z,-985.44
2019-01-20T07:56:06.333Z,-988.77
2019-01-20T07:57:06.569Z,-988.14
2019-01-20T07:58:06.633Z,-982.93
2019-01-20T07:59:06.799Z,-985.86
2019-01-20T08:00:06.982Z,-984.35
2019-01-20T08:01:07.132Z,-988.82
2019-01-20T08:02:07.301Z,-986.61
2019-01-20T08:03:07.448Z,-983.32
2019-01-20T08:04:07.634Z,-983.36
2019-01-20T08:05:07.802Z,-982.60
2019-01-20T08:06:07.947Z,-988.76
2019-01-20T08:07:08.114Z,-984.73
2019-01-20T08:08:08.262Z,-986.34
2019-01-20T08:09:08.431Z,-985.88
2019-01-20T08:10:08.584Z,-985.53
2019-01-20T08:11:08.726Z,-985.24
2019-01-20T08:12:08.927Z,-987.78
2019-01-20T08:13:09.097Z,-933.80
2019-01-20T08:14:09.396Z,-934.22
2019-01-20T08:15:09.401Z,-931.58
2019-01-20T08:16:09.562Z,-933.13
2019-01-20T08:17:11.301Z,-929.31
2019-01-20T08:18:09.884Z,-933.08
2019-01-20T08:19:10.081Z,-934.67
2019-01-20T08:20:10.220Z,-932.76
2019-01-20T08:21:10.351Z,-935.23
2019-01-20T08:22:10.676Z,-929.87
2019-01-20T08:23:10.705Z,-933.14
2019-01-20T08:24:10.873Z,-933.94
2019-01-20T08:25:11.047Z,-928.51
2019-01-20T08:26:11.179Z,-929.25
2019-01-20T08:27:11.368Z,-931.40
2019-01-20T08:28:11.515Z,-935.03
2019-01-20T08:29:12.394Z,-932.39
2019-01-20T08:30:11.882Z,-930.01
2019-01-20T08:31:11.955Z,-932.44
2019-01-20T08:32:12.187Z,-934.89
2019-01-20T08:33:12.324Z,-932.03
2019-01-20T08:34:12.495Z,-935.20
2019-01-20T08:35:12.675Z,-928.97
2019-01-20T08:36:12.811Z,-933.85
2019-01-20T08:37:12.970Z,-928.03
2019-01-20T08:38:13.170Z,-927.32
2019-01-20T08:39:13.299Z,-927.74
2019-01-20T08:40:13.481Z,-930.90
2019-01-20T08:41:13.629Z,-928.87
2019-01-20T08:42:13.792Z,-930.36
2019-01-20T08:43:13.954Z,-931.74
2019-01-20T08:44:14.123Z,-933.94
2019-01-20T08:45:14.309Z,-929.65
2019-01-20T08:46:14.509Z,-929.32
2019-01-20T08:47:14.711Z,-930.57
2019-01-20T08:48:14.776Z,-930.03
2019-01-20T08:49:14.945Z,-930.01
2019-01-20T08:50:15.106Z,-931.91
2019-01-20T08:51:15.260Z,-929.36
2019-01-20T08:52:15.419Z,-926.21
2019-01-20T08:53:15.603Z,-930.92
2019-01-20T08:54:15.754Z,-931.50
2019-01-20T08:55:16.028Z,-927.16
2019-01-20T08:56:16.063Z,-930.72
2019-01-20T08:57:16.218Z,-932.15
2019-01-20T08:58:16.405Z,-928.88
2019-01-20T08:59:16.612Z,-928.84
2019-01-20T09:00:16.733Z,-930.06
2019-01-20T09:01:16.925Z,-929.88
2019-01-20T09:02:17.062Z,-929.58
2019-01-20T09:03:17.300Z,-929.75
2019-01-20T09:04:17.372Z,-927.88
2019-01-20T09:05:17.533Z,-929.84
2019-01-20T09:06:17.682Z,-931.36
2019-01-20T09:07:17.856Z,-927.40
2019-01-20T09:08:18.032Z,-927.90
2019-01-20T09:09:18.184Z,-929.54
2019-01-20T09:10:18.355Z,-926.86
2019-01-20T09:11:18.541Z,-930.57
2019-01-20T09:12:18.642Z,-926.54
2019-01-20T09:13:18.821Z,-928.99
2019-01-20T09:14:18.975Z,-932.53
2019-01-20T09:15:19.144Z,-927.63
2019-01-20T09:16:19.293Z,-930.69
2019-01-20T09:17:19.438Z,-926.47
2019-01-20T09:18:19.632Z,-931.28
2019-01-20T09:19:19.833Z,-929.20
2019-01-20T09:20:20.054Z,-932.14
2019-01-20T09:21:20.103Z,-931.30
2019-01-20T09:22:20.251Z,-925.26
2019-01-20T09:23:20.440Z,-927.80
2019-01-20T09:24:20.616Z,-927.53
2019-01-20T09:25:20.765Z,-923.87
2019-01-20T09:26:20.969Z,-930.31
2019-01-20T09:27:21.087Z,-926.44
2019-01-20T09:28:21.409Z,-929.40
2019-01-20T09:32:15.842Z,-766.86
2019-01-20T09:32:47.897Z,-924.83
2019-01-20T09:33:47.846Z,-923.69
2019-01-20T09:35:16.949Z,-926.54
2019-01-20T09:35:48.171Z,-929.07
2019-01-20T09:36:48.337Z,-926.32
2019-01-20T09:37:48.531Z,-930.70
2019-01-20T09:38:48.613Z,-925.49
2019-01-20T09:39:48.814Z,-921.56
2019-01-20T09:40:48.934Z,-925.05
2019-01-20T09:41:49.125Z,-928.10
2019-01-20T09:42:49.311Z,-927.37
2019-01-20T09:43:49.469Z,-924.38
2019-01-20T09:44:49.686Z,-924.80
2019-01-20T09:45:49.805Z,-916.96
2019-01-20T09:46:50.085Z,-925.13
2019-01-20T09:47:50.107Z,-926.98
2019-01-20T09:48:50.283Z,-927.41
2019-01-20T09:49:50.517Z,-924.11
2019-01-20T09:50:50.597Z,-925.33
2019-01-20T09:51:50.776Z,-924.80
2019-01-20T09:52:50.944Z,-931.60
2019-01-20T09:53:51.066Z,-923.90
2019-01-20T09:54:51.416Z,-927.70
2019-01-20T09:55:51.415Z,-923.84
2019-01-20T09:56:51.600Z,-927.45
2019-01-20T09:57:51.723Z,-926.91
2019-01-20T09:58:51.871Z,-927.69
2019-01-20T09:59:52.149Z,-921.11
2019-01-20T10:00:52.269Z,-923.46
2019-01-20T10:01:52.404Z,-926.14
2019-01-20T10:02:52.668Z,-919.83
2019-01-20T10:03:52.674Z,-924.57
2019-01-20T10:04:52.882Z,-927.06
2019-01-20T10:05:53.073Z,-918.41
2019-01-20T10:06:53.229Z,-922.44
2019-01-20T10:07:53.351Z,-918.09
2019-01-20T10:08:56.659Z,-919.71
2019-01-20T10:09:53.690Z,-919.68
2019-01-20T10:10:53.850Z,-921.97
2019-01-20T10:11:53.996Z,-925.96
2019-01-20T10:12:54.145Z,-928.67
2019-01-20T10:13:54.948Z,-922.79
2019-01-20T10:14:54.487Z,-924.19
2019-01-20T10:15:54.649Z,-925.35
2019-01-20T10:16:54.791Z,-925.76
2019-01-20T10:17:54.948Z,-922.94
2019-01-20T10:18:55.167Z,-920.62
2019-01-20T10:19:55.309Z,-927.30
2019-01-20T10:20:55.477Z,-921.82
2019-01-20T10:21:55.638Z,-928.19
2019-01-20T10:22:55.765Z,-924.61
2019-01-20T10:23:55.941Z,-921.46
2019-01-20T10:24:56.119Z,-924.73
2019-01-20T10:25:56.278Z,-926.88
2019-01-20T10:26:56.494Z,-921.54
2019-01-20T10:27:56.725Z,-926.31
2019-01-20T10:28:56.747Z,-917.71
2019-01-20T10:29:56.926Z,-925.25
2019-01-20T10:30:57.081Z,-924.00
2019-01-20T10:31:57.249Z,-926.74
2019-01-20T10:32:57.394Z,-923.56
2019-01-20T10:33:57.534Z,-922.20
2019-01-20T10:34:57.726Z,-926.74
2019-01-20T10:35:58.032Z,-922.48
2019-01-20T10:36:58.055Z,-928.62
2019-01-20T10:37:58.188Z,-923.70
2019-01-20T10:38:58.366Z,-923.33
2019-01-20T10:39:58.562Z,-922.27
2019-01-20T10:40:58.937Z,-919.73
2019-01-20T10:41:58.850Z,-922.14
2019-01-20T10:42:59.027Z,-926.43
2019-01-20T10:44:02.293Z,-927.55
2019-01-20T10:44:59.351Z,-922.70
2019-01-20T10:45:59.509Z,-925.67
2019-01-20T10:46:59.663Z,-921.13
2019-01-20T10:47:59.842Z,-917.90
2019-01-20T10:49:00.002Z,-917.30
2019-01-20T10:50:00.176Z,-913.08
2019-01-20T10:51:00.333Z,-911.59
2019-01-20T10:52:00.538Z,-918.36
2019-01-20T10:53:00.556Z,-911.60
2019-01-20T10:54:00.740Z,-919.90
2019-01-20T10:55:00.908Z,-926.98
2019-01-20T10:56:01.097Z,-920.41
2019-01-20T10:57:01.208Z,-920.93
2019-01-20T10:58:01.397Z,-918.60
2019-01-20T10:59:01.531Z,-924.71
2019-01-20T11:00:01.729Z,-928.20
2019-01-20T11:01:01.988Z,-924.83
2019-01-20T11:02:02.094Z,-922.46
2019-01-20T11:03:02.268Z,-922.94
2019-01-20T11:04:02.411Z,-920.45
2019-01-20T11:05:03.505Z,-916.57
2019-01-20T11:06:02.714Z,-923.06
2019-01-20T11:07:02.897Z,-924.95
2019-01-20T11:08:03.075Z,-922.31
2019-01-20T11:09:03.342Z,-921.29
2019-01-20T11:10:03.378Z,-922.34
2019-01-20T11:11:03.522Z,-916.22
2019-01-20T11:12:03.938Z,-924.61
2019-01-20T11:13:03.884Z,-921.99
2019-01-20T11:14:09.473Z,-921.73
2019-01-20T11:15:05.204Z,-919.00
2019-01-20T11:16:04.348Z,-918.70
2019-01-20T11:17:04.543Z,-925.44
2019-01-20T11:18:04.671Z,-921.67
2019-01-20T11:19:04.819Z,-919.60
2019-01-20T11:20:04.998Z,-920.79
2019-01-20T11:21:05.133Z,-918.02
2019-01-20T11:22:05.314Z,-908.66
2019-01-20T11:23:05.484Z,-914.56
2019-01-20T11:24:05.624Z,-921.82
2019-01-20T11:25:05.855Z,-917.51
2019-01-20T11:26:05.935Z,-920.03
2019-01-20T11:27:06.121Z,-918.37
2019-01-20T11:28:06.262Z,-915.82
2019-01-20T11:29:06.414Z,-910.72
2019-01-20T11:30:06.586Z,-910.24
2019-01-20T11:31:06.738Z,-917.84
2019-01-20T11:32:06.922Z,-912.36
2019-01-20T11:33:07.092Z,-921.55
2019-01-20T11:34:07.263Z,-915.21
2019-01-20T11:35:07.388Z,-913.35
2019-01-20T11:36:07.537Z,-917.69
2019-01-20T11:37:07.700Z,-919.47
2019-01-20T11:38:07.877Z,-921.74
2019-01-20T11:39:08.002Z,-924.05
2019-01-20T11:40:08.190Z,-923.06
2019-01-20T11:41:08.370Z,-923.15
2019-01-20T11:42:08.638Z,-924.72
2019-01-20T11:43:08.683Z,-926.96
2019-01-20T11:44:08.828Z,-928.53
2019-01-20T11:45:08.997Z,-921.84
2019-01-20T11:46:09.158Z,-926.50
2019-01-20T11:47:09.344Z,-923.39
2019-01-20T11:48:09.496Z,-925.77
2019-01-20T11:49:09.649Z,-924.40
2019-01-20T11:50:09.876Z,-923.05
2019-01-20T11:51:09.975Z,-922.89
2019-01-20T11:52:10.156Z,-925.66
2019-01-20T11:53:10.318Z,-928.94
2019-01-20T11:54:10.462Z,-924.16
2019-01-20T11:55:10.606Z,-923.03
2019-01-20T11:56:10.797Z,-925.26
2019-01-20T11:57:10.969Z,-929.96
2019-01-20T11:58:11.171Z,-926.88
2019-01-20T11:59:11.260Z,-923.87
2019-01-20T12:00:11.416Z,-921.18
2019-01-20T12:01:11.599Z,-926.04
2019-01-20T12:02:11.775Z,-927.40
2019-01-20T12:03:11.923Z,-923.12
2019-01-20T12:04:12.068Z,-923.37
2019-01-20T12:05:12.232Z,-925.28
2019-01-20T12:06:12.427Z,-928.83
2019-01-20T12:07:12.617Z,-929.34
2019-01-20T12:08:12.749Z,-922.46
2019-01-20T12:09:12.897Z,-927.81
2019-01-20T12:10:13.064Z,-926.35
2019-01-20T12:11:13.236Z,-926.19
2019-01-20T12:12:13.392Z,-933.83
2019-01-20T12:13:13.540Z,-923.58
2019-01-20T12:14:13.725Z,-927.82
2019-01-20T12:15:13.975Z,-927.69